Time;durP1;ratioP1;P1;durP2;ratioP2;P2;SDS_P1;SDS_P2;PMS_P1;PMS_P2;Temp;Humidity;BMP_temperature;BMP_pressure;BME280_temperature;BME280_humidity;BME280_pressure;Samples;Min_cycle;Max_cycle;Signal;HPM_P1;HPM_P2
2022/03/29 00:02:10;;;;;;;29.20;19.23;;;;;;;12.72;100.00;98864.44;4995666;28;20203;-79
2022/03/29 00:04:39;;;;;;;29.67;19.80;;;;;;;12.84;100.00;98863.50;4993051;28;20265;-79
2022/03/29 00:07:08;;;;;;;28.47;17.73;;;;;;;12.88;100.00;98866.75;4951073;29;20196;-78
2022/03/29 00:09:36;;;;;;;29.83;18.47;;;;;;;12.76;100.00;98859.75;4953902;28;20279;-78
2022/03/29 00:12:05;;;;;;;28.07;17.57;;;;;;;12.73;100.00;98849.31;4948554;28;20268;-78
2022/03/29 00:14:34;;;;;;;30.07;19.57;;;;;;;12.59;100.00;98851.25;4953531;29;20206;-78
2022/03/29 00:17:04;;;;;;;27.97;19.10;;;;;;;12.75;100.00;98847.41;4952420;28;20197;-79
2022/03/29 00:19:38;;;;;;;30.90;19.20;;;;;;;12.83;100.00;98837.84;4950632;28;20311;-79
2022/03/29 00:22:07;;;;;;;36.00;19.47;;;;;;;12.79;100.00;98844.38;4947827;28;20200;-79
2022/03/29 00:24:36;;;;;;;30.50;19.43;;;;;;;12.89;100.00;98847.16;4957650;28;20199;-79
2022/03/29 00:27:06;;;;;;;32.43;18.77;;;;;;;12.89;100.00;98839.19;4991279;28;20202;-79
2022/03/29 00:29:34;;;;;;;28.97;18.93;;;;;;;12.77;100.00;98835.69;4993348;28;20211;-79
2022/03/29 00:32:07;;;;;;;33.77;20.43;;;;;;;12.63;100.00;98832.41;4991734;28;20378;-79
2022/03/29 00:34:42;;;;;;;30.63;20.10;;;;;;;12.70;100.00;98825.66;4993826;28;20227;-79
2022/03/29 00:37:10;;;;;;;29.37;19.70;;;;;;;12.70;100.00;98829.16;4991429;28;20218;-79
2022/03/29 00:39:38;;;;;;;32.07;19.43;;;;;;;12.72;100.00;98829.88;4990436;28;20210;-79
2022/03/29 00:42:07;;;;;;;35.07;20.40;;;;;;;12.67;100.00;98828.56;4993581;28;20203;-78
2022/03/29 00:44:38;;;;;;;32.33;19.63;;;;;;;12.60;100.00;98830.84;4992859;28;20207;-78
2022/03/29 00:47:08;;;;;;;32.33;20.00;;;;;;;12.51;100.00;98828.91;4992854;28;20254;-79
2022/03/29 00:49:38;;;;;;;29.20;19.53;;;;;;;12.54;100.00;98826.84;4992484;28;20285;-79
2022/03/29 00:52:08;;;;;;;31.97;20.17;;;;;;;12.59;100.00;98827.34;4991468;28;20278;-79
2022/03/29 00:54:41;;;;;;;31.57;20.43;;;;;;;12.52;100.00;98825.28;4988133;28;20203;-79
2022/03/29 00:57:11;;;;;;;31.67;19.60;;;;;;;12.61;100.00;98829.88;4994104;28;20266;-79
2022/03/29 00:59:44;;;;;;;36.00;20.80;;;;;;;12.56;100.00;98824.09;4993754;28;20666;-79
2022/03/29 01:02:13;;;;;;;36.33;21.17;;;;;;;12.50;100.00;98822.75;4992864;28;20306;-79
2022/03/29 01:04:43;;;;;;;31.73;20.53;;;;;;;12.44;100.00;98817.03;4995042;28;20195;-79
2022/03/29 01:07:13;;;;;;;35.13;20.83;;;;;;;12.38;100.00;98814.88;4991760;28;20195;-79
2022/03/29 01:09:42;;;;;;;33.60;20.20;;;;;;;12.27;100.00;98815.69;4989082;28;20263;-79
2022/03/29 01:12:15;;;;;;;36.00;20.97;;;;;;;12.36;100.00;98812.34;4993335;28;20288;-79
2022/03/29 01:14:44;;;;;;;32.30;21.23;;;;;;;11.85;100.00;98804.69;4993280;28;20207;-79
2022/03/29 01:20:05;;;;;;;35.60;21.23;;;;;;;11.93;100.00;98812.09;4995613;28;20230;-78
2022/03/29 01:22:36;;;;;;;35.47;21.87;;;;;;;11.55;100.00;98801.63;4993521;28;20198;-79
2022/03/29 01:25:08;;;;;;;38.80;21.27;;;;;;;11.67;100.00;98809.53;4992702;28;20195;-79
2022/03/29 01:27:37;;;;;;;33.07;20.83;;;;;;;11.51;100.00;98803.69;4993101;28;20686;-79
2022/03/29 01:30:07;;;;;;;34.73;21.97;;;;;;;11.60;100.00;98797.69;4992261;28;20195;-79
2022/03/29 01:32:39;;;;;;;32.53;20.97;;;;;;;11.71;100.00;98802.22;4991168;28;20249;-79
2022/03/29 01:35:11;;;;;;;36.87;21.37;;;;;;;11.70;100.00;98800.53;4992232;28;20231;-79
2022/03/29 01:37:41;;;;;;;36.00;21.27;;;;;;;11.70;100.00;98798.72;4990301;28;20195;-79
2022/03/29 01:40:12;;;;;;;35.97;21.20;;;;;;;11.85;100.00;98794.09;4992735;28;20215;-79
2022/03/29 01:42:42;;;;;;;37.97;21.80;;;;;;;11.90;100.00;98788.44;4936633;29;20201;-78
2022/03/29 01:45:13;;;;;;;36.60;22.07;;;;;;;11.81;100.00;98786.47;4935428;29;20197;-79
2022/03/29 01:47:42;;;;;;;36.00;21.63;;;;;;;11.82;100.00;98786.38;4936059;29;20229;-79
2022/03/29 01:50:12;;;;;;;38.17;21.63;;;;;;;11.80;100.00;98784.78;4937220;29;20205;-79
2022/03/29 01:52:46;;;;;;;36.67;22.50;;;;;;;11.73;100.00;98787.00;4884972;29;20229;-79
2022/03/29 01:55:17;;;;;;;33.87;21.23;;;;;;;11.81;100.00;98787.31;4899737;29;20207;-79
2022/03/29 01:57:47;;;;;;;37.87;22.03;;;;;;;11.82;100.00;98778.41;4900550;29;20274;-78
2022/03/29 02:00:33;;;;;;;34.57;21.60;;;;;;;11.84;100.00;98779.13;4897695;29;20191;-79
2022/03/29 02:03:05;;;;;;;36.07;20.80;;;;;;;11.78;100.00;98779.56;4898834;29;20209;-78
2022/03/29 02:05:34;;;;;;;38.83;22.37;;;;;;;11.79;100.00;98783.06;4901168;29;20225;-78
2022/03/29 02:08:07;;;;;;;35.53;21.10;;;;;;;11.77;100.00;98785.81;4901418;29;20210;-78
2022/03/29 02:10:35;;;;;;;33.97;20.43;;;;;;;11.75;100.00;98782.44;4870956;29;20198;-78
2022/03/29 02:13:09;;;;;;;33.27;20.43;;;;;;;11.50;100.00;98775.47;4908032;29;20228;-78
2022/03/29 02:15:39;;;;;;;38.63;21.70;;;;;;;11.62;100.00;98773.72;4933092;29;20197;-78
2022/03/29 02:18:08;;;;;;;34.63;21.30;;;;;;;11.44;100.00;98768.81;4985506;28;20207;-79
2022/03/29 02:20:36;;;;;;;34.23;20.37;;;;;;;11.47;100.00;98770.38;4997092;28;20698;-78
2022/03/29 02:23:07;;;;;;;34.70;21.87;;;;;;;11.50;100.00;98767.50;4989866;28;20198;-79
2022/03/29 02:25:36;;;;;;;33.80;20.27;;;;;;;11.29;100.00;98780.56;4991967;28;20191;-78
2022/03/29 02:28:05;;;;;;;33.63;20.63;;;;;;;11.35;100.00;98766.81;4995908;28;20199;-77
2022/03/29 02:30:36;;;;;;;32.03;19.90;;;;;;;11.31;100.00;98765.38;4993352;28;20291;-77
2022/03/29 02:33:06;;;;;;;32.23;20.30;;;;;;;11.50;100.00;98764.03;4994051;28;20223;-77
2022/03/29 02:35:35;;;;;;;33.00;19.63;;;;;;;11.50;100.00;98761.38;4995723;28;20202;-78
2022/03/29 02:38:05;;;;;;;32.77;19.80;;;;;;;11.61;100.00;98756.94;4996450;28;20321;-77
2022/03/29 02:40:35;;;;;;;33.83;20.50;;;;;;;11.72;100.00;98756.97;4995466;28;20199;-79
2022/03/29 02:43:03;;;;;;;36.03;21.20;;;;;;;11.47;100.00;98746.50;4994611;28;20210;-80
2022/03/29 02:45:32;;;;;;;39.03;20.73;;;;;;;11.56;100.00;98745.81;4994293;28;20229;-78
2022/03/29 02:48:03;;;;;;;35.07;21.17;;;;;;;11.50;100.00;98742.81;4992309;28;20262;-78
2022/03/29 02:50:31;;;;;;;31.57;20.73;;;;;;;11.66;100.00;98745.97;4994587;28;20241;-78
2022/03/29 02:53:04;;;;;;;33.27;20.93;;;;;;;11.60;100.00;98734.03;4995546;28;20227;-79
2022/03/29 02:55:34;;;;;;;39.07;21.23;;;;;;;11.61;100.00;98733.06;4995209;28;20207;-79
2022/03/29 02:58:03;;;;;;;38.13;21.70;;;;;;;11.59;100.00;98729.69;4995815;28;20203;-79
2022/03/29 03:00:32;;;;;;;36.67;21.10;;;;;;;11.52;100.00;98722.31;4991849;28;20286;-78
2022/03/29 03:03:03;;;;;;;32.50;20.30;;;;;;;11.67;100.00;98729.94;4957464;28;20195;-78
2022/03/29 03:05:33;;;;;;;37.20;20.80;;;;;;;11.68;100.00;98723.69;4993801;28;20281;-78
2022/03/29 03:08:02;;;;;;;33.57;20.37;;;;;;;11.63;100.00;98717.03;4993857;28;20210;-79
2022/03/29 03:10:31;;;;;;;33.17;19.73;;;;;;;11.53;100.00;98716.03;4990583;28;20194;-79
2022/03/29 03:13:01;;;;;;;35.17;20.80;;;;;;;11.49;100.00;98712.78;4997609;28;20219;-78
2022/03/29 03:15:29;;;;;;;34.90;21.17;;;;;;;11.23;100.00;98719.16;4995015;28;20192;-78
2022/03/29 03:17:58;;;;;;;35.20;20.30;;;;;;;11.23;100.00;98720.00;4992750;28;20286;-79
2022/03/29 03:20:26;;;;;;;32.53;19.57;;;;;;;11.00;100.00;98719.06;4993071;28;20262;-78
2022/03/29 03:22:55;;;;;;;35.80;20.27;;;;;;;11.17;100.00;98716.00;4992938;28;20205;-78
2022/03/29 03:25:26;;;;;;;37.00;21.47;;;;;;;11.11;100.00;98726.22;4997642;28;20662;-78
2022/03/29 03:27:54;;;;;;;34.83;20.90;;;;;;;11.12;100.00;98712.00;4977655;28;20206;-78
2022/03/29 03:30:23;;;;;;;38.73;20.60;;;;;;;11.06;100.00;98708.00;4994034;28;20199;-78
2022/03/29 03:32:54;;;;;;;32.40;20.57;;;;;;;10.93;100.00;98712.50;4990165;28;20222;-78
2022/03/29 03:35:22;;;;;;;38.50;21.90;;;;;;;10.87;100.00;98705.84;4992781;28;20214;-78
2022/03/29 03:37:50;;;;;;;32.73;20.73;;;;;;;10.88;100.00;98714.63;4992486;28;20299;-79
2022/03/29 03:40:19;;;;;;;40.50;22.20;;;;;;;10.88;100.00;98710.19;4996574;28;20195;-78
2022/03/29 03:42:48;;;;;;;32.93;20.73;;;;;;;10.89;100.00;98709.22;4994821;28;20227;-78
2022/03/29 03:45:16;;;;;;;34.17;21.20;;;;;;;10.94;100.00;98714.19;4987088;28;20210;-78
2022/03/29 03:47:46;;;;;;;37.03;21.93;;;;;;;10.87;100.00;98705.84;4994891;28;20210;-78
2022/03/29 03:50:14;;;;;;;43.00;22.73;;;;;;;10.87;100.00;98705.84;4972308;28;20278;-78
2022/03/29 03:52:43;;;;;;;37.00;22.07;;;;;;;10.91;100.00;98700.34;4992757;28;20238;-78
2022/03/29 03:55:12;;;;;;;35.57;21.40;;;;;;;10.89;100.00;98703.91;4992420;28;20664;-78
2022/03/29 03:57:40;;;;;;;33.77;21.60;;;;;;;11.08;100.00;98705.22;4970166;28;20211;-78
2022/03/29 04:00:12;;;;;;;36.70;22.67;;;;;;;10.82;100.00;98700.03;4964920;28;20501;-78
2022/03/29 04:02:40;;;;;;;37.43;23.03;;;;;;;10.86;100.00;98703.31;4969762;28;20208;-78
2022/03/29 04:05:12;;;;;;;33.13;20.83;;;;;;;10.85;100.00;98697.16;4971456;28;20219;-79
2022/03/29 04:07:41;;;;;;;34.13;21.73;;;;;;;10.87;100.00;98684.63;4970153;28;20203;-79
2022/03/29 04:10:11;;;;;;;37.53;22.07;;;;;;;10.86;100.00;98688.25;4972893;28;20191;-78
2022/03/29 04:12:39;;;;;;;38.27;22.70;;;;;;;10.88;100.00;98685.47;4970600;28;20287;-78
2022/03/29 04:15:09;;;;;;;35.27;22.30;;;;;;;10.92;100.00;98668.44;4971873;28;20192;-78
2022/03/29 04:17:37;;;;;;;33.87;21.20;;;;;;;11.01;100.00;98673.06;4994103;28;20726;-78
2022/03/29 04:20:07;;;;;;;38.73;22.00;;;;;;;10.94;100.00;98670.97;4994162;28;20219;-79
2022/03/29 04:22:36;;;;;;;36.77;22.13;;;;;;;10.87;100.00;98678.50;4990654;28;20199;-79
2022/03/29 04:25:06;;;;;;;38.87;21.90;;;;;;;10.95;100.00;98670.00;4984917;28;20250;-79
2022/03/29 04:27:35;;;;;;;36.47;21.30;;;;;;;10.89;100.00;98669.47;4991700;28;20206;-79
2022/03/29 04:30:04;;;;;;;38.03;21.83;;;;;;;10.85;100.00;98662.72;4992759;28;20214;-79
2022/03/29 04:32:36;;;;;;;37.37;21.23;;;;;;;10.83;100.00;98666.44;4989437;28;20203;-79
2022/03/29 04:35:05;;;;;;;37.07;21.67;;;;;;;10.73;100.00;98660.97;4990015;28;20301;-79
2022/03/29 04:37:34;;;;;;;36.33;20.63;;;;;;;10.61;100.00;98651.25;4993835;28;20192;-79
2022/03/29 04:40:08;;;;;;;32.87;20.47;;;;;;;10.75;100.00;98656.41;4990331;28;20194;-79
2022/03/29 04:42:46;;;;;;;36.23;22.40;;;;;;;10.74;100.00;98656.50;4986763;28;20198;-79
2022/03/29 04:45:20;;;;;;;33.47;20.37;;;;;;;10.70;100.00;98647.94;4992493;28;20195;-79
2022/03/29 04:47:49;;;;;;;35.53;21.97;;;;;;;10.41;100.00;98651.84;4990301;28;20206;-79
2022/03/29 04:50:18;;;;;;;37.83;22.03;;;;;;;10.31;100.00;98657.78;4975964;28;20263;-79
2022/03/29 04:52:46;;;;;;;38.80;22.30;;;;;;;10.32;100.00;98654.16;4992498;28;20199;-78
2022/03/29 04:55:17;;;;;;;37.70;22.50;;;;;;;10.24;100.00;98653.06;4993418;28;20294;-78
2022/03/29 04:57:49;;;;;;;36.40;22.50;;;;;;;10.04;100.00;98646.47;4993515;28;20207;-79
2022/03/29 05:00:20;;;;;;;37.83;22.53;;;;;;;10.06;100.00;98651.66;4992068;28;20650;-79
2022/03/29 05:02:49;;;;;;;35.27;21.67;;;;;;;9.97;100.00;98645.22;4992183;28;20199;-78
2022/03/29 05:05:20;;;;;;;40.10;22.87;;;;;;;10.02;100.00;98643.91;4993099;28;20226;-78
2022/03/29 05:07:48;;;;;;;39.07;22.37;;;;;;;9.98;100.00;98649.56;4990026;28;20203;-78
2022/03/29 05:10:18;;;;;;;36.50;22.77;;;;;;;10.03;100.00;98644.75;4992656;28;20205;-79
2022/03/29 05:12:51;;;;;;;37.60;22.47;;;;;;;10.03;100.00;98642.13;4993355;28;20199;-78
2022/03/29 05:15:21;;;;;;;35.57;21.23;;;;;;;9.95;100.00;98636.53;4992171;28;20218;-78
2022/03/29 05:17:50;;;;;;;41.20;22.80;;;;;;;9.90;100.00;98630.72;4963520;28;20187;-79
2022/03/29 05:20:19;;;;;;;36.57;22.43;;;;;;;9.91;100.00;98629.75;4994960;28;20235;-78
2022/03/29 05:22:49;;;;;;;43.57;22.73;;;;;;;9.89;100.00;98637.81;4995280;28;20202;-78
2022/03/29 05:25:22;;;;;;;36.50;22.53;;;;;;;10.04;100.00;98642.03;4994797;28;20202;-78
2022/03/29 05:27:50;;;;;;;41.07;22.67;;;;;;;9.99;100.00;98632.72;4996291;28;20212;-78
2022/03/29 05:30:21;;;;;;;37.57;21.40;;;;;;;9.84;100.00;98639.06;4974464;28;20666;-79
2022/03/29 05:32:51;;;;;;;37.13;22.83;;;;;;;9.98;100.00;98638.97;4976426;28;20223;-79
2022/03/29 05:35:20;;;;;;;40.83;22.87;;;;;;;9.90;100.00;98630.72;4976162;28;20223;-79
2022/03/29 05:37:49;;;;;;;40.20;22.63;;;;;;;9.82;100.00;98631.25;4973190;28;20266;-79
2022/03/29 05:40:20;;;;;;;36.67;21.70;;;;;;;10.07;100.00;98632.19;4973336;28;20207;-78
2022/03/29 05:42:48;;;;;;;41.07;21.90;;;;;;;10.07;100.00;98630.38;4970774;28;20211;-78
2022/03/29 05:45:16;;;;;;;39.10;21.77;;;;;;;9.99;100.00;98628.28;4972292;28;20206;-78
2022/03/29 05:50:31;;;;;;;34.70;21.57;;;;;;;10.10;100.00;98630.16;4997176;28;20258;-79
2022/03/29 05:53:02;;;;;;;36.63;22.33;;;;;;;10.21;100.00;98622.31;4997074;28;20203;-78
2022/03/29 05:55:32;;;;;;;36.27;21.67;;;;;;;10.21;100.00;98621.47;4999167;28;20215;-78
2022/03/29 05:58:00;;;;;;;35.10;21.47;;;;;;;10.28;100.00;98620.94;4992372;28;20218;-78
2022/03/29 06:00:31;;;;;;;31.77;20.97;;;;;;;10.34;100.00;98624.97;4994945;28;20650;-78
2022/03/29 06:03:01;;;;;;;38.00;22.20;;;;;;;10.33;100.00;98639.16;4995302;28;20630;-79
2022/03/29 06:05:32;;;;;;;36.03;21.63;;;;;;;10.30;100.00;98642.00;4997450;28;20217;-78
2022/03/29 06:08:00;;;;;;;40.93;21.30;;;;;;;10.25;100.00;98646.81;4989929;28;20199;-79
2022/03/29 06:10:28;;;;;;;37.37;21.63;;;;;;;10.37;100.00;98647.72;4996819;28;20203;-78
2022/03/29 06:12:58;;;;;;;38.03;21.60;;;;;;;10.16;100.00;98650.06;4999023;28;20234;-78
2022/03/29 06:15:28;;;;;;;34.27;20.67;;;;;;;9.99;100.00;98657.38;4994851;28;20230;-79
2022/03/29 06:17:57;;;;;;;37.63;22.60;;;;;;;9.96;100.00;98659.41;4995339;28;20203;-78
2022/03/29 06:20:26;;;;;;;38.17;22.70;;;;;;;9.98;100.00;98662.78;4996382;28;20238;-79
2022/03/29 06:22:54;;;;;;;35.87;22.37;;;;;;;9.99;100.00;98659.19;4994202;28;20210;-78
2022/03/29 06:25:22;;;;;;;37.53;22.00;;;;;;;10.07;100.00;98675.38;4996227;28;20222;-79
2022/03/29 06:27:53;;;;;;;32.77;21.63;;;;;;;10.08;100.00;98665.63;4992725;28;20203;-79
2022/03/29 06:30:23;;;;;;;39.93;21.73;;;;;;;10.14;100.00;98668.69;4994342;28;20195;-78
2022/03/29 06:32:53;;;;;;;34.00;20.23;;;;;;;10.11;100.00;98663.59;4992130;28;20282;-79
2022/03/29 06:35:25;;;;;;;36.50;20.13;;;;;;;10.08;100.00;98658.53;4993949;28;20258;-79
2022/03/29 06:37:58;;;;;;;33.47;19.47;;;;;;;10.04;100.00;98660.56;4993117;28;20206;-79
2022/03/29 06:40:28;;;;;;;33.10;19.00;;;;;;;10.13;100.00;98664.34;4995985;28;20229;-78
2022/03/29 06:42:57;;;;;;;29.30;18.13;;;;;;;10.03;100.00;98664.13;4995957;28;20646;-78
2022/03/29 06:45:28;;;;;;;26.57;18.43;;;;;;;9.98;100.00;98662.78;4995276;28;20199;-78
2022/03/29 06:47:57;;;;;;;31.27;18.93;;;;;;;10.00;100.00;98661.72;4995008;28;20207;-78
2022/03/29 06:50:27;;;;;;;29.53;18.83;;;;;;;9.95;100.00;98658.56;4996054;28;20187;-78
2022/03/29 06:52:56;;;;;;;27.37;18.50;;;;;;;10.01;100.00;98650.16;4994316;28;20308;-78
2022/03/29 06:55:27;;;;;;;27.30;19.00;;;;;;;10.11;100.00;98652.19;4993832;28;20215;-78
2022/03/29 06:57:56;;;;;;;31.40;18.87;;;;;;;10.36;100.00;98659.28;4995716;28;20669;-78
2022/03/29 07:00:25;;;;;;;31.50;19.13;;;;;;;10.36;100.00;98652.19;4991979;28;20226;-78
2022/03/29 07:02:55;;;;;;;28.17;18.93;;;;;;;10.57;100.00;98657.72;4993198;28;20285;-78
2022/03/29 07:05:23;;;;;;;27.23;18.53;;;;;;;10.62;100.00;98657.41;4993711;28;20207;-78
2022/03/29 07:07:52;;;;;;;30.30;19.60;;;;;;;10.83;100.00;98667.28;4995965;28;20590;-79
2022/03/29 07:13:08;;;;;;;31.20;20.40;;;;;;;10.74;100.00;98659.16;4995604;28;20206;-78
2022/03/29 07:15:37;;;;;;;31.50;19.90;;;;;;;10.80;100.00;98662.19;4976835;28;20355;-78
2022/03/29 07:18:07;;;;;;;31.43;21.40;;;;;;;10.57;100.00;98658.56;4995332;28;20203;-78
2022/03/29 07:20:36;;;;;;;30.40;19.47;;;;;;;10.72;100.00;98661.09;4995546;28;20245;-78
2022/03/29 07:23:04;;;;;;;29.57;20.70;;;;;;;10.91;100.00;98652.66;4993981;28;20211;-78
2022/03/29 07:25:33;;;;;;;31.43;20.20;;;;;;;10.86;100.00;98660.91;4993161;28;20203;-78
2022/03/29 07:28:04;;;;;;;32.47;20.83;;;;;;;10.90;100.00;98665.00;4993118;28;20263;-78
2022/03/29 07:30:34;;;;;;;30.83;21.03;;;;;;;10.81;100.00;98663.91;4994721;28;20199;-78
2022/03/29 07:33:02;;;;;;;32.10;21.00;;;;;;;10.97;100.00;98660.13;4995581;28;20209;-78
2022/03/29 07:35:33;;;;;;;36.20;22.10;;;;;;;11.14;100.00;98667.69;4991412;28;20230;-78
2022/03/29 07:38:02;;;;;;;28.60;19.37;;;;;;;11.42;100.00;98666.47;4990627;28;20217;-78
2022/03/29 07:40:32;;;;;;;28.60;20.07;;;;;;;11.49;100.00;98667.69;4994932;28;20536;-79
2022/03/29 07:43:03;;;;;;;29.90;20.50;;;;;;;11.49;100.00;98669.50;4994769;28;20194;-79
2022/03/29 07:45:31;;;;;;;30.67;21.10;;;;;;;11.51;100.00;98656.97;4993784;28;20206;-79
2022/03/29 07:48:02;;;;;;;28.23;20.40;;;;;;;11.45;100.00;98666.22;4992947;28;20274;-78
2022/03/29 07:50:52;;;;;;;28.30;19.00;;;;;;;11.60;100.00;98670.38;4994637;28;20195;-79
2022/03/29 07:53:29;;;;;;;31.73;20.23;;;;;;;11.65;100.00;98665.56;5009740;28;20224;-79
2022/03/29 07:55:59;;;;;;;29.83;20.03;;;;;;;11.61;100.00;98663.25;5009572;28;20353;-79
2022/03/29 07:58:27;;;;;;;30.27;20.90;;;;;;;11.85;100.00;98665.88;5009713;28;20198;-79
2022/03/29 08:00:55;;;;;;;31.83;20.77;;;;;;;11.70;100.00;98660.75;5004620;28;20209;-79
2022/03/29 08:03:32;;;;;;;31.23;20.83;;;;;;;11.84;100.00;98670.31;5006265;28;20229;-79
2022/03/29 08:06:04;;;;;;;29.83;20.07;;;;;;;11.84;100.00;98661.53;5008694;28;20194;-79
2022/03/29 08:08:34;;;;;;;29.60;20.80;;;;;;;11.97;100.00;98657.81;5010558;28;20195;-78
2022/03/29 08:11:04;;;;;;;27.43;20.43;;;;;;;12.02;100.00;98662.75;5004752;28;20590;-79
2022/03/29 08:13:32;;;;;;;29.07;20.07;;;;;;;12.27;100.00;98661.69;4994181;28;20282;-79
2022/03/29 08:16:01;;;;;;;29.10;20.27;;;;;;;12.21;100.00;98660.34;4993086;28;20475;-79
2022/03/29 08:18:35;;;;;;;29.13;20.37;;;;;;;12.01;100.00;98653.94;4994440;28;20199;-79
2022/03/29 08:21:49;;;;;;;28.63;19.70;;;;;;;12.31;100.00;98652.50;4994016;28;20227;-79
2022/03/29 08:23:54;;;;;;;28.43;19.43;;;;;;;12.09;100.00;98648.06;4994570;28;20201;-79
2022/03/29 08:26:22;;;;;;;26.70;18.93;;;;;;;12.01;100.00;98655.75;4991745;28;20681;-79
2022/03/29 08:28:51;;;;;;;27.70;19.27;;;;;;;11.93;100.00;98650.19;4995568;28;20206;-79
2022/03/29 08:31:22;;;;;;;26.97;20.53;;;;;;;12.18;100.00;98647.31;4993503;28;20195;-79
2022/03/29 08:33:50;;;;;;;29.50;19.70;;;;;;;12.08;100.00;98642.88;4994105;28;20675;-78
2022/03/29 08:36:21;;;;;;;29.00;19.67;;;;;;;12.16;100.00;98640.44;4990026;28;20222;-79
2022/03/29 08:38:49;;;;;;;27.13;18.57;;;;;;;12.37;100.00;98625.47;4993773;28;20199;-78
2022/03/29 08:41:19;;;;;;;25.93;18.27;;;;;;;12.47;100.00;98630.88;4987554;28;20199;-79
2022/03/29 08:43:48;;;;;;;25.77;18.17;;;;;;;12.59;100.00;98625.44;4996396;28;20209;-78
2022/03/29 08:46:16;;;;;;;26.70;18.33;;;;;;;12.83;100.00;98624.38;4974839;28;20203;-79
2022/03/29 08:48:48;;;;;;;27.07;17.40;;;;;;;13.03;100.00;98620.13;4995993;28;20218;-78
2022/03/29 08:51:19;;;;;;;23.83;17.77;;;;;;;13.04;100.00;98616.50;4993509;28;20204;-78
2022/03/29 08:54:04;;;;;;;24.27;17.23;;;;;;;13.36;100.00;98619.13;4993761;28;20294;-78
2022/03/29 08:56:33;;;;;;;26.47;16.97;;;;;;;13.09;100.00;98619.59;4993484;28;20230;-78
2022/03/29 08:59:01;;;;;;;24.00;16.87;;;;;;;13.35;100.00;98625.44;4989101;28;20192;-79
2022/03/29 09:01:30;;;;;;;20.80;15.23;;;;;;;13.16;100.00;98620.78;4988690;28;20210;-79
2022/03/29 09:04:09;;;;;;;22.80;14.80;;;;;;;13.43;100.00;98625.63;4993559;28;20197;-78
2022/03/29 09:07:00;;;;;;;17.77;13.50;;;;;;;13.51;100.00;98609.00;4991751;28;20221;-79
2022/03/29 09:09:32;;;;;;;17.87;12.60;;;;;;;13.42;100.00;98614.16;4993445;28;20209;-79
2022/03/29 09:12:11;;;;;;;17.80;12.87;;;;;;;13.52;100.00;98613.38;4990017;28;20210;-79
2022/03/29 09:14:55;;;;;;;18.07;12.70;;;;;;;13.80;100.00;98609.19;4991293;28;20206;-79
2022/03/29 09:17:32;;;;;;;24.87;16.60;;;;;;;13.90;100.00;98612.75;4992397;28;20698;-79
2022/03/29 09:20:02;;;;;;;24.70;16.40;;;;;;;14.04;100.00;98613.25;4993173;28;20223;-79
2022/03/29 09:22:39;;;;;;;23.40;15.73;;;;;;;14.03;100.00;98603.56;4993684;28;20654;-79
2022/03/29 09:25:11;;;;;;;26.17;15.90;;;;;;;14.35;100.00;98604.38;4993691;28;20245;-79
2022/03/29 09:27:53;;;;;;;19.90;15.03;;;;;;;14.35;100.00;98604.38;4993444;28;20226;-79
2022/03/29 09:30:22;;;;;;;18.17;12.30;;;;;;;14.62;100.00;98601.97;4950030;28;20202;-79
2022/03/29 09:33:02;;;;;;;17.97;11.30;;;;;;;14.47;95.89;98590.81;4983547;28;20258;-78
2022/03/29 09:35:31;;;;;;;15.87;11.70;;;;;;;14.57;94.72;98593.50;4991284;28;20199;-79
2022/03/29 09:38:01;;;;;;;18.70;12.80;;;;;;;14.47;95.33;98585.50;4991200;28;20289;-79
2022/03/29 09:40:38;;;;;;;18.20;11.53;;;;;;;14.35;95.39;98591.06;4991756;28;20282;-79
2022/03/29 09:43:10;;;;;;;14.17;10.67;;;;;;;14.62;93.83;98588.63;4990607;28;20195;-78
2022/03/29 09:45:44;;;;;;;15.63;10.60;;;;;;;14.87;90.72;98596.13;4992211;28;20237;-79
2022/03/29 09:48:28;;;;;;;15.33;11.40;;;;;;;15.03;92.58;98586.69;4993272;28;20751;-79
2022/03/29 09:50:59;;;;;;;13.33;11.03;;;;;;;15.25;90.68;98573.09;4993713;28;20210;-79
2022/03/29 09:53:35;;;;;;;16.17;11.03;;;;;;;15.49;85.79;98587.78;4995654;28;20211;-79
2022/03/29 09:56:07;;;;;;;18.07;11.90;;;;;;;15.14;85.55;98578.53;4993201;28;20226;-79
2022/03/29 09:58:36;;;;;;;17.93;11.50;;;;;;;15.29;86.71;98579.81;4993062;28;20274;-78
2022/03/29 10:01:06;;;;;;;17.50;12.67;;;;;;;14.62;93.78;98571.78;4991213;28;20206;-78
2022/03/29 10:03:35;;;;;;;17.40;13.07;;;;;;;14.89;92.77;98570.13;4975407;28;20203;-79
2022/03/29 10:06:05;;;;;;;17.50;12.00;;;;;;;15.10;93.17;98563.81;4971845;28;20270;-78
2022/03/29 10:11:27;;;;;;;15.90;11.23;;;;;;;15.43;90.24;98560.66;4975348;28;20208;-78
2022/03/29 10:13:55;;;;;;;15.50;11.40;;;;;;;15.42;88.81;98560.81;4966352;28;20250;-79
2022/03/29 10:16:26;;;;;;;15.40;11.10;;;;;;;15.72;87.19;98560.63;4972275;28;20227;-79
2022/03/29 10:18:56;;;;;;;15.33;11.17;;;;;;;15.57;86.78;98558.56;4974192;28;20196;-79
2022/03/29 10:21:24;;;;;;;16.80;12.10;;;;;;;15.85;86.78;98555.00;4982302;28;20287;-79
2022/03/29 10:23:59;;;;;;;12.53;10.40;;;;;;;15.43;83.42;98547.31;4995030;28;20234;-78
2022/03/29 10:26:30;;;;;;;10.90;7.80;;;;;;;15.56;76.59;98551.53;4996256;28;20199;-79
2022/03/29 10:28:59;;;;;;;12.53;8.63;;;;;;;15.70;76.32;98549.25;4972434;28;20199;-79
2022/03/29 10:31:29;;;;;;;10.77;7.70;;;;;;;15.50;75.44;98541.44;4973651;28;20211;-79
2022/03/29 10:34:21;;;;;;;13.10;7.80;;;;;;;15.25;73.88;98541.06;4974951;28;20204;-79
2022/03/29 10:37:10;;;;;;;14.57;8.37;;;;;;;15.71;73.89;98534.91;4970132;28;20713;-79
2022/03/29 10:39:53;;;;;;;13.50;9.40;;;;;;;15.97;73.83;98528.91;4938167;28;20200;-79
2022/03/29 10:42:42;;;;;;;9.67;7.70;;;;;;;15.57;74.08;98523.84;4974417;28;20199;-79
2022/03/29 10:45:19;;;;;;;13.10;7.03;;;;;;;15.86;71.76;98516.59;4972353;28;20192;-78
2022/03/29 10:48:07;;;;;;;11.03;8.13;;;;;;;15.88;71.39;98503.09;4987892;28;20257;-79
2022/03/29 10:50:57;;;;;;;10.37;7.63;;;;;;;15.88;70.68;98517.28;4998493;28;20211;-79
2022/03/29 10:53:28;;;;;;;8.97;6.57;;;;;;;15.99;69.50;98511.75;4998446;28;20262;-80
2022/03/29 10:56:23;;;;;;;9.40;6.80;;;;;;;16.03;69.88;98501.63;4996173;28;20217;-79
2022/03/29 10:59:14;;;;;;;10.87;7.60;;;;;;;15.73;72.91;98494.75;4996206;28;20195;-79
2022/03/29 11:01:43;;;;;;;10.63;7.67;;;;;;;16.15;70.94;98495.09;4994857;28;20197;-79
2022/03/29 11:04:23;;;;;;;11.20;7.87;;;;;;;16.23;69.97;98483.66;4995879;28;20242;-79
2022/03/29 11:07:12;;;;;;;10.50;8.27;;;;;;;16.15;71.89;98476.38;4995253;28;20205;-79
2022/03/29 11:09:46;;;;;;;10.13;7.53;;;;;;;16.44;69.44;98467.31;4991223;28;20213;-79
2022/03/29 11:12:41;;;;;;;11.30;8.40;;;;;;;16.47;69.48;98467.84;4995292;28;20206;-79
2022/03/29 11:15:45;;;;;;;12.20;8.27;;;;;;;16.45;68.84;98461.81;4994763;28;20199;-79
2022/03/29 11:18:43;;;;;;;10.70;7.30;;;;;;;16.58;66.69;98459.59;4995223;28;20256;-79
2022/03/29 11:21:27;;;;;;;10.03;7.70;;;;;;;16.26;66.97;98454.78;4976663;28;20227;-78
2022/03/29 11:23:59;;;;;;;9.07;6.70;;;;;;;16.49;62.00;98449.81;4977170;28;20195;-80
2022/03/29 11:26:28;;;;;;;9.80;5.93;;;;;;;16.73;61.40;98443.06;4995234;28;20205;-80
2022/03/29 11:28:58;;;;;;;5.27;3.87;;;;;;;16.83;55.29;98438.47;4995138;28;20269;-79
2022/03/29 11:31:34;;;;;;;9.07;4.97;;;;;;;16.78;55.94;98440.75;4995597;28;20269;-80
2022/03/29 11:34:05;;;;;;;8.70;6.37;;;;;;;16.83;57.90;98439.28;4997756;28;20229;-80
2022/03/29 11:36:37;;;;;;;6.83;4.97;;;;;;;17.06;55.60;98428.06;4992643;28;20187;-80
2022/03/29 11:39:22;;;;;;;8.43;5.73;;;;;;;16.90;54.65;98441.34;4995379;28;20270;-80
2022/03/29 11:41:53;;;;;;;4.80;2.93;;;;;;;16.53;50.37;98437.84;4992581;28;20274;-79
2022/03/29 11:44:23;;;;;;;3.30;2.40;;;;;;;16.68;47.91;98432.81;4991662;28;20202;-80